Aviation Digital Data Service (ADDS)

Output produced by METARs form (2056 UTC 22 June 2018)
found at http://aviationweather.gov/adds/metars/
 
KAEX 222053Z 23009KT 10SM BKN050 33/24 A2982 RMK AO2 SLP099 T03280244 56026 $